sensor_id;sensor_type;location;lat;lon;timestamp;temperature;humidity
59067;DHT22;44854;50.838;4.438;2023-11-19T00:00:29;14.00;99.90
59067;DHT22;44854;50.838;4.438;2023-11-19T00:02:57;14.10;99.90
59067;DHT22;44854;50.838;4.438;2023-11-19T00:05:23;14.10;99.90
59067;DHT22;44854;50.838;4.438;2023-11-19T00:07:48;14.00;99.90
59067;DHT22;44854;50.838;4.438;2023-11-19T00:10:15;14.00;99.90
59067;DHT22;44854;50.838;4.438;2023-11-19T00:12:46;14.10;99.90
59067;DHT22;44854;50.838;4.438;2023-11-19T00:15:12;14.10;99.90
59067;DHT22;44854;50.838;4.438;2023-11-19T00:17:39;14.10;99.90
59067;DHT22;44854;50.838;4.438;2023-11-19T00:20:11;14.10;99.90
59067;DHT22;44854;50.838;4.438;2023-11-19T00:22:37;14.10;99.90
59067;DHT22;44854;50.838;4.438;2023-11-19T00:25:03;14.10;99.90
59067;DHT22;44854;50.838;4.438;2023-11-19T00:27:29;14.10;99.90
59067;DHT22;44854;50.838;4.438;2023-11-19T00:29:54;14.20;99.90
59067;DHT22;44854;50.838;4.438;2023-11-19T00:32:20;14.20;99.90
59067;DHT22;44854;50.838;4.438;2023-11-19T00:34:46;14.20;99.90
59067;DHT22;44854;50.838;4.438;2023-11-19T00:37:13;14.20;99.90
59067;DHT22;44854;50.838;4.438;2023-11-19T00:39:39;14.20;99.90
59067;DHT22;44854;50.838;4.438;2023-11-19T00:42:05;14.20;99.90
59067;DHT22;44854;50.838;4.438;2023-11-19T00:44:31;14.20;99.90
59067;DHT22;44854;50.838;4.438;2023-11-19T00:46:56;14.10;99.90
59067;DHT22;44854;50.838;4.438;2023-11-19T00:49:22;14.10;99.90
59067;DHT22;44854;50.838;4.438;2023-11-19T00:51:48;14.10;99.90
59067;DHT22;44854;50.838;4.438;2023-11-19T00:54:14;14.10;99.90
59067;DHT22;44854;50.838;4.438;2023-11-19T00:56:40;14.10;99.90
59067;DHT22;44854;50.838;4.438;2023-11-19T00:59:06;14.20;99.90
59067;DHT22;44854;50.838;4.438;2023-11-19T01:01:31;14.10;99.90
59067;DHT22;44854;50.838;4.438;2023-11-19T01:03:57;14.20;99.90
59067;DHT22;44854;50.838;4.438;2023-11-19T01:06:32;14.10;99.90
59067;DHT22;44854;50.838;4.438;2023-11-19T01:08:58;14.20;99.90
59067;DHT22;44854;50.838;4.438;2023-11-19T01:11:24;14.30;99.90
59067;DHT22;44854;50.838;4.438;2023-11-19T01:13:51;14.20;99.90
59067;DHT22;44854;50.838;4.438;2023-11-19T01:16:17;14.20;99.90
59067;DHT22;44854;50.838;4.438;2023-11-19T01:18:44;14.20;99.90
59067;DHT22;44854;50.838;4.438;2023-11-19T01:21:10;14.20;99.90
59067;DHT22;44854;50.838;4.438;2023-11-19T01:23:36;14.10;99.90
59067;DHT22;44854;50.838;4.438;2023-11-19T01:26:02;14.20;99.90
59067;DHT22;44854;50.838;4.438;2023-11-19T01:28:28;14.20;99.90
59067;DHT22;44854;50.838;4.438;2023-11-19T01:30:54;14.30;99.90
59067;DHT22;44854;50.838;4.438;2023-11-19T01:33:20;14.30;99.90
59067;DHT22;44854;50.838;4.438;2023-11-19T01:35:46;14.20;99.90
59067;DHT22;44854;50.838;4.438;2023-11-19T01:38:12;14.20;99.90
59067;DHT22;44854;50.838;4.438;2023-11-19T01:40:40;14.30;99.90
59067;DHT22;44854;50.838;4.438;2023-11-19T01:43:06;14.20;99.90
59067;DHT22;44854;50.838;4.438;2023-11-19T01:45:33;14.10;99.90
59067;DHT22;44854;50.838;4.438;2023-11-19T01:48:02;14.10;99.90
59067;DHT22;44854;50.838;4.438;2023-11-19T01:50:30;14.10;99.90
59067;DHT22;44854;50.838;4.438;2023-11-19T01:52:57;14.10;99.90
59067;DHT22;44854;50.838;4.438;2023-11-19T01:55:24;14.30;99.90
59067;DHT22;44854;50.838;4.438;2023-11-19T01:57:51;14.10;99.90
59067;DHT22;44854;50.838;4.438;2023-11-19T02:00:18;14.10;99.90
59067;DHT22;44854;50.838;4.438;2023-11-19T02:02:46;14.00;99.90
59067;DHT22;44854;50.838;4.438;2023-11-19T02:05:13;14.00;99.90
59067;DHT22;44854;50.838;4.438;2023-11-19T02:07:39;14.00;99.90
59067;DHT22;44854;50.838;4.438;2023-11-19T02:10:06;14.00;99.90
59067;DHT22;44854;50.838;4.438;2023-11-19T02:12:32;14.00;99.90
59067;DHT22;44854;50.838;4.438;2023-11-19T02:15:02;14.00;99.90
59067;DHT22;44854;50.838;4.438;2023-11-19T02:17:30;14.00;99.90
59067;DHT22;44854;50.838;4.438;2023-11-19T02:20:00;13.90;99.90
59067;DHT22;44854;50.838;4.438;2023-11-19T02:22:25;13.90;99.90
59067;DHT22;44854;50.838;4.438;2023-11-19T02:24:57;14.00;99.90
59067;DHT22;44854;50.838;4.438;2023-11-19T02:30:06;13.80;99.90
59067;DHT22;44854;50.838;4.438;2023-11-19T02:32:34;13.80;99.90
59067;DHT22;44854;50.838;4.438;2023-11-19T02:35:01;13.80;99.90
59067;DHT22;44854;50.838;4.438;2023-11-19T02:37:27;13.80;99.90
59067;DHT22;44854;50.838;4.438;2023-11-19T02:39:53;13.90;99.90
59067;DHT22;44854;50.838;4.438;2023-11-19T02:42:19;13.80;99.90
59067;DHT22;44854;50.838;4.438;2023-11-19T02:44:45;13.80;99.90
59067;DHT22;44854;50.838;4.438;2023-11-19T02:47:11;13.80;99.90
59067;DHT22;44854;50.838;4.438;2023-11-19T02:49:37;13.70;99.90
59067;DHT22;44854;50.838;4.438;2023-11-19T02:52:03;13.80;99.90
59067;DHT22;44854;50.838;4.438;2023-11-19T02:54:31;13.80;99.90
59067;DHT22;44854;50.838;4.438;2023-11-19T02:57:00;13.90;99.90
59067;DHT22;44854;50.838;4.438;2023-11-19T02:59:28;13.80;99.90
59067;DHT22;44854;50.838;4.438;2023-11-19T03:02:07;13.80;99.90
59067;DHT22;44854;50.838;4.438;2023-11-19T03:04:37;13.80;99.90
59067;DHT22;44854;50.838;4.438;2023-11-19T03:07:06;13.80;99.90
59067;DHT22;44854;50.838;4.438;2023-11-19T03:09:32;13.70;99.90
59067;DHT22;44854;50.838;4.438;2023-11-19T03:11:59;13.70;99.90
59067;DHT22;44854;50.838;4.438;2023-11-19T03:14:25;13.70;99.90
59067;DHT22;44854;50.838;4.438;2023-11-19T03:16:51;13.60;99.90
59067;DHT22;44854;50.838;4.438;2023-11-19T03:19:17;13.60;99.90
59067;DHT22;44854;50.838;4.438;2023-11-19T03:21:42;13.60;99.90
59067;DHT22;44854;50.838;4.438;2023-11-19T03:24:08;13.60;99.90
59067;DHT22;44854;50.838;4.438;2023-11-19T03:26:34;13.60;99.90
59067;DHT22;44854;50.838;4.438;2023-11-19T03:29:00;13.50;99.90
59067;DHT22;44854;50.838;4.438;2023-11-19T03:31:26;13.50;99.90
59067;DHT22;44854;50.838;4.438;2023-11-19T03:33:52;13.50;99.90
59067;DHT22;44854;50.838;4.438;2023-11-19T03:36:17;13.20;99.90
59067;DHT22;44854;50.838;4.438;2023-11-19T03:38:43;13.30;99.90
59067;DHT22;44854;50.838;4.438;2023-11-19T03:41:12;13.30;99.90
59067;DHT22;44854;50.838;4.438;2023-11-19T03:43:39;13.30;99.90
59067;DHT22;44854;50.838;4.438;2023-11-19T03:46:26;13.30;99.90
59067;DHT22;44854;50.838;4.438;2023-11-19T03:48:52;13.40;99.90
59067;DHT22;44854;50.838;4.438;2023-11-19T03:51:18;13.30;99.90
59067;DHT22;44854;50.838;4.438;2023-11-19T03:53:46;13.20;99.90
59067;DHT22;44854;50.838;4.438;2023-11-19T03:56:12;13.20;99.90
59067;DHT22;44854;50.838;4.438;2023-11-19T03:58:39;13.20;99.90
59067;DHT22;44854;50.838;4.438;2023-11-19T04:01:05;13.20;99.90
59067;DHT22;44854;50.838;4.438;2023-11-19T04:03:31;13.30;99.90
59067;DHT22;44854;50.838;4.438;2023-11-19T04:05:57;13.20;99.90
59067;DHT22;44854;50.838;4.438;2023-11-19T04:08:23;13.10;99.90
59067;DHT22;44854;50.838;4.438;2023-11-19T04:10:48;13.20;99.90
59067;DHT22;44854;50.838;4.438;2023-11-19T04:13:14;13.10;99.90
59067;DHT22;44854;50.838;4.438;2023-11-19T04:15:40;13.20;99.90
59067;DHT22;44854;50.838;4.438;2023-11-19T04:18:06;13.20;99.90
59067;DHT22;44854;50.838;4.438;2023-11-19T04:20:32;13.10;99.90
59067;DHT22;44854;50.838;4.438;2023-11-19T04:22:58;13.20;99.90
59067;DHT22;44854;50.838;4.438;2023-11-19T04:25:26;13.20;99.90
59067;DHT22;44854;50.838;4.438;2023-11-19T04:27:51;13.20;99.90
59067;DHT22;44854;50.838;4.438;2023-11-19T04:30:17;13.00;99.90
59067;DHT22;44854;50.838;4.438;2023-11-19T04:32:47;13.10;99.90
59067;DHT22;44854;50.838;4.438;2023-11-19T04:35:14;13.20;99.90
59067;DHT22;44854;50.838;4.438;2023-11-19T04:37:41;13.10;99.90
59067;DHT22;44854;50.838;4.438;2023-11-19T04:40:07;13.10;99.90
59067;DHT22;44854;50.838;4.438;2023-11-19T04:42:32;13.10;99.90
59067;DHT22;44854;50.838;4.438;2023-11-19T04:44:58;13.00;99.90
59067;DHT22;44854;50.838;4.438;2023-11-19T04:47:24;13.00;99.90
59067;DHT22;44854;50.838;4.438;2023-11-19T04:49:50;13.00;99.90
59067;DHT22;44854;50.838;4.438;2023-11-19T04:52:16;13.00;99.90
59067;DHT22;44854;50.838;4.438;2023-11-19T04:54:42;13.00;99.90
59067;DHT22;44854;50.838;4.438;2023-11-19T04:57:09;13.00;99.90
59067;DHT22;44854;50.838;4.438;2023-11-19T04:59:36;13.00;99.90
59067;DHT22;44854;50.838;4.438;2023-11-19T05:02:02;13.00;99.90
59067;DHT22;44854;50.838;4.438;2023-11-19T05:04:29;13.00;99.90
59067;DHT22;44854;50.838;4.438;2023-11-19T05:06:55;13.10;99.90
59067;DHT22;44854;50.838;4.438;2023-11-19T05:09:20;13.10;99.90
59067;DHT22;44854;50.838;4.438;2023-11-19T05:11:46;13.10;99.90
59067;DHT22;44854;50.838;4.438;2023-11-19T05:14:12;13.20;99.90
59067;DHT22;44854;50.838;4.438;2023-11-19T05:16:41;13.20;99.90
59067;DHT22;44854;50.838;4.438;2023-11-19T05:19:07;13.00;99.90
59067;DHT22;44854;50.838;4.438;2023-11-19T05:21:33;13.00;99.90
59067;DHT22;44854;50.838;4.438;2023-11-19T05:24:00;12.90;99.90
59067;DHT22;44854;50.838;4.438;2023-11-19T05:26:26;12.80;99.90
59067;DHT22;44854;50.838;4.438;2023-11-19T05:28:51;12.80;99.90
59067;DHT22;44854;50.838;4.438;2023-11-19T05:31:18;12.90;99.90
59067;DHT22;44854;50.838;4.438;2023-11-19T05:33:43;12.90;99.90
59067;DHT22;44854;50.838;4.438;2023-11-19T05:36:11;12.90;99.90
59067;DHT22;44854;50.838;4.438;2023-11-19T05:38:37;12.90;99.90
59067;DHT22;44854;50.838;4.438;2023-11-19T05:41:03;12.90;99.90
59067;DHT22;44854;50.838;4.438;2023-11-19T05:43:28;12.90;99.90
59067;DHT22;44854;50.838;4.438;2023-11-19T05:45:54;12.90;99.90
59067;DHT22;44854;50.838;4.438;2023-11-19T05:48:19;12.90;99.90
59067;DHT22;44854;50.838;4.438;2023-11-19T05:50:45;12.80;99.90
59067;DHT22;44854;50.838;4.438;2023-11-19T05:53:11;12.90;99.90
59067;DHT22;44854;50.838;4.438;2023-11-19T05:55:40;12.90;99.90
59067;DHT22;44854;50.838;4.438;2023-11-19T05:58:12;12.90;99.90
59067;DHT22;44854;50.838;4.438;2023-11-19T06:00:38;12.90;99.90
59067;DHT22;44854;50.838;4.438;2023-11-19T06:03:05;12.80;99.90
59067;DHT22;44854;50.838;4.438;2023-11-19T06:05:32;13.00;99.90
59067;DHT22;44854;50.838;4.438;2023-11-19T06:07:58;12.80;99.90
59067;DHT22;44854;50.838;4.438;2023-11-19T06:10:23;12.90;99.90
59067;DHT22;44854;50.838;4.438;2023-11-19T06:12:59;12.90;99.90
59067;DHT22;44854;50.838;4.438;2023-11-19T06:15:25;12.80;99.90
59067;DHT22;44854;50.838;4.438;2023-11-19T06:17:52;12.80;99.90
59067;DHT22;44854;50.838;4.438;2023-11-19T06:20:18;12.70;99.90
59067;DHT22;44854;50.838;4.438;2023-11-19T06:22:45;12.70;99.90
59067;DHT22;44854;50.838;4.438;2023-11-19T06:25:11;12.60;99.90
59067;DHT22;44854;50.838;4.438;2023-11-19T06:27:40;12.60;99.90
59067;DHT22;44854;50.838;4.438;2023-11-19T06:30:07;12.60;99.90
59067;DHT22;44854;50.838;4.438;2023-11-19T06:32:33;12.50;99.90
59067;DHT22;44854;50.838;4.438;2023-11-19T06:34:58;12.60;99.90
59067;DHT22;44854;50.838;4.438;2023-11-19T06:37:24;12.60;99.90
59067;DHT22;44854;50.838;4.438;2023-11-19T06:39:49;12.60;99.90
59067;DHT22;44854;50.838;4.438;2023-11-19T06:42:15;12.70;99.90
59067;DHT22;44854;50.838;4.438;2023-11-19T06:44:41;12.70;99.90
59067;DHT22;44854;50.838;4.438;2023-11-19T06:47:07;12.70;99.90
59067;DHT22;44854;50.838;4.438;2023-11-19T06:49:32;12.70;99.90
59067;DHT22;44854;50.838;4.438;2023-11-19T06:51:58;12.60;99.90
59067;DHT22;44854;50.838;4.438;2023-11-19T06:54:24;12.50;99.90
59067;DHT22;44854;50.838;4.438;2023-11-19T06:56:50;12.50;99.90
59067;DHT22;44854;50.838;4.438;2023-11-19T06:59:15;12.40;99.90
59067;DHT22;44854;50.838;4.438;2023-11-19T07:01:41;12.40;99.90
59067;DHT22;44854;50.838;4.438;2023-11-19T07:04:12;12.50;99.90
59067;DHT22;44854;50.838;4.438;2023-11-19T07:06:38;12.50;99.90
59067;DHT22;44854;50.838;4.438;2023-11-19T07:09:04;12.40;99.90
59067;DHT22;44854;50.838;4.438;2023-11-19T07:11:41;12.40;99.90
59067;DHT22;44854;50.838;4.438;2023-11-19T07:14:09;12.50;99.90
59067;DHT22;44854;50.838;4.438;2023-11-19T07:16:35;12.40;99.90
59067;DHT22;44854;50.838;4.438;2023-11-19T07:19:05;12.40;99.90
59067;DHT22;44854;50.838;4.438;2023-11-19T07:21:31;12.40;99.90
59067;DHT22;44854;50.838;4.438;2023-11-19T07:23:58;12.40;99.90
59067;DHT22;44854;50.838;4.438;2023-11-19T07:26:24;12.50;99.90
59067;DHT22;44854;50.838;4.438;2023-11-19T07:28:50;12.50;99.90
59067;DHT22;44854;50.838;4.438;2023-11-19T07:31:16;12.50;99.90
59067;DHT22;44854;50.838;4.438;2023-11-19T07:33:45;12.50;99.90
59067;DHT22;44854;50.838;4.438;2023-11-19T07:36:11;12.50;99.90
59067;DHT22;44854;50.838;4.438;2023-11-19T07:38:37;12.50;99.90
59067;DHT22;44854;50.838;4.438;2023-11-19T07:41:04;12.50;99.90
59067;DHT22;44854;50.838;4.438;2023-11-19T07:43:31;12.50;99.90
59067;DHT22;44854;50.838;4.438;2023-11-19T07:45:56;12.60;99.90
59067;DHT22;44854;50.838;4.438;2023-11-19T07:48:24;12.60;99.90
59067;DHT22;44854;50.838;4.438;2023-11-19T07:50:52;12.50;99.90
59067;DHT22;44854;50.838;4.438;2023-11-19T07:53:18;12.50;99.90
59067;DHT22;44854;50.838;4.438;2023-11-19T07:55:44;12.50;99.90
59067;DHT22;44854;50.838;4.438;2023-11-19T07:58:10;12.40;99.90
59067;DHT22;44854;50.838;4.438;2023-11-19T08:00:36;12.40;99.90
59067;DHT22;44854;50.838;4.438;2023-11-19T08:03:05;12.40;99.90
59067;DHT22;44854;50.838;4.438;2023-11-19T08:05:31;12.40;99.90
59067;DHT22;44854;50.838;4.438;2023-11-19T08:07:57;12.50;99.90
59067;DHT22;44854;50.838;4.438;2023-11-19T08:10:23;12.60;99.90
59067;DHT22;44854;50.838;4.438;2023-11-19T08:12:49;12.70;99.90
59067;DHT22;44854;50.838;4.438;2023-11-19T08:15:15;12.70;99.90
59067;DHT22;44854;50.838;4.438;2023-11-19T08:17:41;12.60;99.90
59067;DHT22;44854;50.838;4.438;2023-11-19T08:20:08;12.50;99.90
59067;DHT22;44854;50.838;4.438;2023-11-19T08:22:37;12.70;99.90
59067;DHT22;44854;50.838;4.438;2023-11-19T08:25:06;12.70;99.90
59067;DHT22;44854;50.838;4.438;2023-11-19T08:27:32;12.70;99.90
59067;DHT22;44854;50.838;4.438;2023-11-19T08:29:57;12.60;99.90
59067;DHT22;44854;50.838;4.438;2023-11-19T08:32:27;12.60;99.90
59067;DHT22;44854;50.838;4.438;2023-11-19T08:34:53;12.60;99.90
59067;DHT22;44854;50.838;4.438;2023-11-19T08:37:19;12.70;99.90
59067;DHT22;44854;50.838;4.438;2023-11-19T08:39:50;12.80;99.90
59067;DHT22;44854;50.838;4.438;2023-11-19T08:42:16;12.90;99.90
59067;DHT22;44854;50.838;4.438;2023-11-19T08:44:43;13.00;99.90
59067;DHT22;44854;50.838;4.438;2023-11-19T08:47:12;12.90;99.90
59067;DHT22;44854;50.838;4.438;2023-11-19T08:49:38;12.90;99.90
59067;DHT22;44854;50.838;4.438;2023-11-19T08:52:05;12.80;99.90
59067;DHT22;44854;50.838;4.438;2023-11-19T08:54:32;12.90;99.90
59067;DHT22;44854;50.838;4.438;2023-11-19T08:56:59;12.80;99.90
59067;DHT22;44854;50.838;4.438;2023-11-19T08:59:25;12.70;99.90
59067;DHT22;44854;50.838;4.438;2023-11-19T09:01:50;12.80;99.90
59067;DHT22;44854;50.838;4.438;2023-11-19T09:04:16;12.80;99.90
59067;DHT22;44854;50.838;4.438;2023-11-19T09:06:43;12.90;99.90
59067;DHT22;44854;50.838;4.438;2023-11-19T09:09:09;13.10;99.90
59067;DHT22;44854;50.838;4.438;2023-11-19T09:11:35;13.30;99.90
59067;DHT22;44854;50.838;4.438;2023-11-19T09:14:02;13.10;99.90
59067;DHT22;44854;50.838;4.438;2023-11-19T09:16:27;13.10;99.90
59067;DHT22;44854;50.838;4.438;2023-11-19T09:18:53;13.00;99.90
59067;DHT22;44854;50.838;4.438;2023-11-19T09:21:19;13.00;99.90
59067;DHT22;44854;50.838;4.438;2023-11-19T09:23:44;12.90;99.90
59067;DHT22;44854;50.838;4.438;2023-11-19T09:26:10;12.80;99.90
59067;DHT22;44854;50.838;4.438;2023-11-19T09:28:36;12.90;99.90
59067;DHT22;44854;50.838;4.438;2023-11-19T09:31:02;12.90;99.90
59067;DHT22;44854;50.838;4.438;2023-11-19T09:33:30;12.80;99.90
59067;DHT22;44854;50.838;4.438;2023-11-19T09:35:56;12.90;99.90
59067;DHT22;44854;50.838;4.438;2023-11-19T09:38:23;13.00;99.90
59067;DHT22;44854;50.838;4.438;2023-11-19T09:40:48;12.90;99.90
59067;DHT22;44854;50.838;4.438;2023-11-19T09:43:18;12.90;99.90
59067;DHT22;44854;50.838;4.438;2023-11-19T09:45:50;12.80;99.90
59067;DHT22;44854;50.838;4.438;2023-11-19T09:48:19;12.90;99.90
59067;DHT22;44854;50.838;4.438;2023-11-19T09:50:48;12.90;99.90
59067;DHT22;44854;50.838;4.438;2023-11-19T09:53:15;13.00;99.90
59067;DHT22;44854;50.838;4.438;2023-11-19T09:55:41;13.10;99.90
59067;DHT22;44854;50.838;4.438;2023-11-19T09:58:07;13.20;99.90
59067;DHT22;44854;50.838;4.438;2023-11-19T10:00:34;13.20;99.90
59067;DHT22;44854;50.838;4.438;2023-11-19T10:03:00;13.10;99.90
59067;DHT22;44854;50.838;4.438;2023-11-19T10:05:26;13.10;99.90
59067;DHT22;44854;50.838;4.438;2023-11-19T10:07:54;13.20;99.90
59067;DHT22;44854;50.838;4.438;2023-11-19T10:10:22;13.30;99.90
59067;DHT22;44854;50.838;4.438;2023-11-19T10:12:51;13.20;99.90
59067;DHT22;44854;50.838;4.438;2023-11-19T10:15:24;13.30;99.90
59067;DHT22;44854;50.838;4.438;2023-11-19T10:17:55;13.30;99.90
59067;DHT22;44854;50.838;4.438;2023-11-19T10:20:20;13.40;99.90
59067;DHT22;44854;50.838;4.438;2023-11-19T10:22:46;13.40;99.90
59067;DHT22;44854;50.838;4.438;2023-11-19T10:25:25;13.40;99.90
59067;DHT22;44854;50.838;4.438;2023-11-19T10:27:51;13.50;99.90
59067;DHT22;44854;50.838;4.438;2023-11-19T10:30:21;13.40;99.90
59067;DHT22;44854;50.838;4.438;2023-11-19T10:35:52;13.70;99.90
59067;DHT22;44854;50.838;4.438;2023-11-19T10:38:19;13.60;99.90
59067;DHT22;44854;50.838;4.438;2023-11-19T10:40:45;13.70;99.90
59067;DHT22;44854;50.838;4.438;2023-11-19T10:43:11;13.80;99.90
59067;DHT22;44854;50.838;4.438;2023-11-19T10:45:37;13.90;99.90
59067;DHT22;44854;50.838;4.438;2023-11-19T10:48:04;13.90;99.90
59067;DHT22;44854;50.838;4.438;2023-11-19T10:50:37;13.90;99.90
59067;DHT22;44854;50.838;4.438;2023-11-19T10:53:04;13.80;99.90
59067;DHT22;44854;50.838;4.438;2023-11-19T10:55:35;13.80;99.90
59067;DHT22;44854;50.838;4.438;2023-11-19T10:58:06;13.70;99.90
59067;DHT22;44854;50.838;4.438;2023-11-19T11:00:59;13.90;99.90
59067;DHT22;44854;50.838;4.438;2023-11-19T11:03:32;13.90;99.90
59067;DHT22;44854;50.838;4.438;2023-11-19T11:06:03;13.90;99.90
59067;DHT22;44854;50.838;4.438;2023-11-19T11:08:30;13.80;99.90
59067;DHT22;44854;50.838;4.438;2023-11-19T11:10:57;13.80;99.90
59067;DHT22;44854;50.838;4.438;2023-11-19T11:13:24;13.80;99.90
59067;DHT22;44854;50.838;4.438;2023-11-19T11:15:51;13.90;99.90
59067;DHT22;44854;50.838;4.438;2023-11-19T11:18:17;13.70;99.90
59067;DHT22;44854;50.838;4.438;2023-11-19T11:20:46;13.70;99.90
59067;DHT22;44854;50.838;4.438;2023-11-19T11:29:08;13.80;99.90
59067;DHT22;44854;50.838;4.438;2023-11-19T11:39:34;13.60;99.90
59067;DHT22;44854;50.838;4.438;2023-11-19T11:50:13;13.90;99.90
59067;DHT22;44854;50.838;4.438;2023-11-19T11:55:54;13.90;99.90
59067;DHT22;44854;50.838;4.438;2023-11-19T11:58:27;13.90;99.90
59067;DHT22;44854;50.838;4.438;2023-11-19T12:00:53;14.00;99.90
59067;DHT22;44854;50.838;4.438;2023-11-19T12:03:22;14.10;99.90
59067;DHT22;44854;50.838;4.438;2023-11-19T12:05:48;14.20;99.90
59067;DHT22;44854;50.838;4.438;2023-11-19T12:08:18;14.30;99.90
59067;DHT22;44854;50.838;4.438;2023-11-19T12:10:50;14.50;99.90
59067;DHT22;44854;50.838;4.438;2023-11-19T12:13:17;14.40;99.90
59067;DHT22;44854;50.838;4.438;2023-11-19T12:18:29;14.30;99.90
59067;DHT22;44854;50.838;4.438;2023-11-19T12:20:55;14.20;99.90
59067;DHT22;44854;50.838;4.438;2023-11-19T12:23:24;14.00;99.90
59067;DHT22;44854;50.838;4.438;2023-11-19T12:25:50;14.00;99.90
59067;DHT22;44854;50.838;4.438;2023-11-19T12:28:16;14.10;99.90
59067;DHT22;44854;50.838;4.438;2023-11-19T12:30:46;13.90;99.90
59067;DHT22;44854;50.838;4.438;2023-11-19T12:33:14;13.90;99.90
59067;DHT22;44854;50.838;4.438;2023-11-19T12:35:40;13.80;99.90
59067;DHT22;44854;50.838;4.438;2023-11-19T12:38:06;13.70;99.90
59067;DHT22;44854;50.838;4.438;2023-11-19T12:40:32;13.70;99.90
59067;DHT22;44854;50.838;4.438;2023-11-19T12:42:58;13.60;99.90
59067;DHT22;44854;50.838;4.438;2023-11-19T12:45:24;13.70;99.90
59067;DHT22;44854;50.838;4.438;2023-11-19T12:48:07;13.70;99.90
59067;DHT22;44854;50.838;4.438;2023-11-19T12:50:55;13.70;99.90
59067;DHT22;44854;50.838;4.438;2023-11-19T12:53:23;13.80;99.90
59067;DHT22;44854;50.838;4.438;2023-11-19T12:55:53;13.80;99.90
59067;DHT22;44854;50.838;4.438;2023-11-19T12:58:32;13.80;99.90
59067;DHT22;44854;50.838;4.438;2023-11-19T13:01:02;13.80;99.90
59067;DHT22;44854;50.838;4.438;2023-11-19T13:03:37;13.70;99.90
59067;DHT22;44854;50.838;4.438;2023-11-19T13:06:11;13.70;99.90
59067;DHT22;44854;50.838;4.438;2023-11-19T13:08:42;13.80;99.90
59067;DHT22;44854;50.838;4.438;2023-11-19T13:11:09;13.90;99.90
59067;DHT22;44854;50.838;4.438;2023-11-19T13:14:08;13.90;99.90
59067;DHT22;44854;50.838;4.438;2023-11-19T13:16:37;13.90;99.90
59067;DHT22;44854;50.838;4.438;2023-11-19T13:19:02;13.90;99.90
59067;DHT22;44854;50.838;4.438;2023-11-19T13:21:28;13.90;99.90
59067;DHT22;44854;50.838;4.438;2023-11-19T13:23:55;14.00;99.90
59067;DHT22;44854;50.838;4.438;2023-11-19T13:26:21;13.90;99.90
59067;DHT22;44854;50.838;4.438;2023-11-19T13:28:47;13.90;99.90
59067;DHT22;44854;50.838;4.438;2023-11-19T13:31:13;13.80;99.90
59067;DHT22;44854;50.838;4.438;2023-11-19T13:33:39;13.70;99.90
59067;DHT22;44854;50.838;4.438;2023-11-19T13:36:05;13.60;99.90
59067;DHT22;44854;50.838;4.438;2023-11-19T13:38:32;13.80;99.90
59067;DHT22;44854;50.838;4.438;2023-11-19T13:40:58;13.90;99.90
59067;DHT22;44854;50.838;4.438;2023-11-19T13:43:24;14.00;99.90
59067;DHT22;44854;50.838;4.438;2023-11-19T13:45:50;13.90;99.90
59067;DHT22;44854;50.838;4.438;2023-11-19T13:48:18;13.80;99.90
59067;DHT22;44854;50.838;4.438;2023-11-19T13:50:44;13.80;99.90
59067;DHT22;44854;50.838;4.438;2023-11-19T13:53:09;13.60;99.90
59067;DHT22;44854;50.838;4.438;2023-11-19T13:55:35;13.60;99.90
59067;DHT22;44854;50.838;4.438;2023-11-19T13:58:01;13.60;99.90
59067;DHT22;44854;50.838;4.438;2023-11-19T14:00:26;13.60;99.90
59067;DHT22;44854;50.838;4.438;2023-11-19T14:02:52;13.70;99.90
59067;DHT22;44854;50.838;4.438;2023-11-19T14:05:18;13.60;99.90
59067;DHT22;44854;50.838;4.438;2023-11-19T14:07:44;13.60;99.90
59067;DHT22;44854;50.838;4.438;2023-11-19T14:10:10;13.60;99.90
59067;DHT22;44854;50.838;4.438;2023-11-19T14:12:39;13.60;99.90
59067;DHT22;44854;50.838;4.438;2023-11-19T14:15:09;13.70;99.90
59067;DHT22;44854;50.838;4.438;2023-11-19T14:17:35;13.70;99.90
59067;DHT22;44854;50.838;4.438;2023-11-19T14:20:02;13.70;99.90
59067;DHT22;44854;50.838;4.438;2023-11-19T14:22:44;13.60;99.90
59067;DHT22;44854;50.838;4.438;2023-11-19T14:25:10;13.60;99.90
59067;DHT22;44854;50.838;4.438;2023-11-19T14:27:37;13.70;99.90
59067;DHT22;44854;50.838;4.438;2023-11-19T14:30:07;13.60;99.90
59067;DHT22;44854;50.838;4.438;2023-11-19T14:32:33;13.60;99.90
59067;DHT22;44854;50.838;4.438;2023-11-19T14:35:00;13.60;99.90
59067;DHT22;44854;50.838;4.438;2023-11-19T14:37:26;13.50;99.90
59067;DHT22;44854;50.838;4.438;2023-11-19T14:39:52;13.40;99.90
59067;DHT22;44854;50.838;4.438;2023-11-19T14:42:17;13.30;99.90
59067;DHT22;44854;50.838;4.438;2023-11-19T14:44:43;13.30;99.90
59067;DHT22;44854;50.838;4.438;2023-11-19T14:47:09;13.30;99.90
59067;DHT22;44854;50.838;4.438;2023-11-19T14:49:35;13.30;99.90
59067;DHT22;44854;50.838;4.438;2023-11-19T14:52:03;13.10;99.90
59067;DHT22;44854;50.838;4.438;2023-11-19T14:54:29;13.30;99.90
59067;DHT22;44854;50.838;4.438;2023-11-19T14:56:54;13.30;99.90
59067;DHT22;44854;50.838;4.438;2023-11-19T14:59:20;13.20;99.90
59067;DHT22;44854;50.838;4.438;2023-11-19T15:01:45;13.30;99.90
59067;DHT22;44854;50.838;4.438;2023-11-19T15:04:11;13.30;99.90
59067;DHT22;44854;50.838;4.438;2023-11-19T15:06:37;13.30;99.90
59067;DHT22;44854;50.838;4.438;2023-11-19T15:09:04;13.30;99.90
59067;DHT22;44854;50.838;4.438;2023-11-19T15:11:30;13.30;99.90
59067;DHT22;44854;50.838;4.438;2023-11-19T15:13:56;13.30;99.90
59067;DHT22;44854;50.838;4.438;2023-11-19T15:16:22;13.30;99.90
59067;DHT22;44854;50.838;4.438;2023-11-19T15:18:58;13.30;99.90
59067;DHT22;44854;50.838;4.438;2023-11-19T15:21:26;13.40;99.90
59067;DHT22;44854;50.838;4.438;2023-11-19T15:23:52;13.40;99.90
59067;DHT22;44854;50.838;4.438;2023-11-19T15:26:18;13.50;99.90
59067;DHT22;44854;50.838;4.438;2023-11-19T15:28:44;13.60;99.90
59067;DHT22;44854;50.838;4.438;2023-11-19T15:31:10;13.60;99.90
59067;DHT22;44854;50.838;4.438;2023-11-19T15:33:36;13.60;99.90
59067;DHT22;44854;50.838;4.438;2023-11-19T15:36:02;13.50;99.90
59067;DHT22;44854;50.838;4.438;2023-11-19T15:38:33;13.50;99.90
59067;DHT22;44854;50.838;4.438;2023-11-19T15:40:59;13.40;99.90
59067;DHT22;44854;50.838;4.438;2023-11-19T15:43:25;13.40;99.90
59067;DHT22;44854;50.838;4.438;2023-11-19T15:45:50;13.50;99.90
59067;DHT22;44854;50.838;4.438;2023-11-19T15:48:16;13.50;99.90
59067;DHT22;44854;50.838;4.438;2023-11-19T15:50:43;13.50;99.90
59067;DHT22;44854;50.838;4.438;2023-11-19T15:53:10;13.60;99.90
59067;DHT22;44854;50.838;4.438;2023-11-19T15:55:36;13.70;99.90
59067;DHT22;44854;50.838;4.438;2023-11-19T15:58:02;13.60;99.90
59067;DHT22;44854;50.838;4.438;2023-11-19T16:00:28;13.70;99.90
59067;DHT22;44854;50.838;4.438;2023-11-19T16:02:54;13.60;99.90